Time;durP1;ratioP1;P1;durP2;ratioP2;P2;SDS_P1;SDS_P2;PMS_P1;PMS_P2;Temp;Humidity;BMP_temperature;BMP_pressure;BME280_temperature;BME280_humidity;BME280_pressure;Samples;Min_cycle;Max_cycle;Signal;HPM_P1;HPM_P2
2021/08/28 00:01:06;;;;;;;13.77;3.90;;;17.50;99.90;;;;;;4911503;29;20176;-82
2021/08/28 00:03:32;;;;;;;10.93;2.40;;;17.40;99.90;;;;;;4905154;29;20197;-82
2021/08/28 00:05:58;;;;;;;10.23;3.17;;;17.40;99.90;;;;;;4918177;29;20212;-81
2021/08/28 00:08:23;;;;;;;13.07;3.07;;;17.40;99.90;;;;;;4912728;29;20192;-82
2021/08/28 00:10:49;;;;;;;10.43;2.73;;;17.30;99.90;;;;;;4905084;29;20195;-81
2021/08/28 00:13:15;;;;;;;8.63;2.50;;;17.20;99.90;;;;;;4916817;29;20331;-81
2021/08/28 00:15:41;;;;;;;11.27;3.27;;;17.30;99.90;;;;;;4905704;29;20197;-82
2021/08/28 00:18:06;;;;;;;7.57;2.33;;;17.30;99.90;;;;;;4910516;29;20702;-82
2021/08/28 00:20:35;;;;;;;10.73;3.17;;;17.40;99.90;;;;;;4905644;29;20685;-82
2021/08/28 00:23:03;;;;;;;10.30;3.00;;;17.50;99.90;;;;;;4916862;29;20176;-82
2021/08/28 00:25:29;;;;;;;8.20;3.10;;;17.50;99.90;;;;;;4917795;29;20663;-81
2021/08/28 00:27:54;;;;;;;12.03;3.70;;;17.40;99.90;;;;;;4914639;29;20276;-81
2021/08/28 00:30:20;;;;;;;14.03;3.73;;;17.40;99.90;;;;;;4907310;29;20198;-81
2021/08/28 00:32:46;;;;;;;16.33;3.60;;;17.40;99.90;;;;;;4913088;29;20188;-82
2021/08/28 00:35:11;;;;;;;14.10;3.63;;;17.30;99.90;;;;;;4906744;29;20205;-81
2021/08/28 00:37:37;;;;;;;13.37;3.50;;;17.30;99.90;;;;;;4913251;29;20188;-81
2021/08/28 00:40:05;;;;;;;12.23;4.33;;;17.30;99.90;;;;;;4916351;29;20550;-82
2021/08/28 00:42:30;;;;;;;16.67;3.93;;;17.20;99.90;;;;;;4913116;29;20220;-82
2021/08/28 00:44:57;;;;;;;9.57;3.50;;;17.00;99.90;;;;;;4916426;29;20251;-82
2021/08/28 00:47:24;;;;;;;12.93;4.00;;;16.80;99.90;;;;;;4917893;29;20279;-82
2021/08/28 00:49:50;;;;;;;15.53;4.00;;;17.00;99.90;;;;;;4913883;29;20658;-82
2021/08/28 00:52:17;;;;;;;9.10;3.20;;;17.00;99.90;;;;;;4906186;29;20248;-82
2021/08/28 00:54:43;;;;;;;11.13;3.30;;;16.80;99.90;;;;;;4907076;29;20189;-82
2021/08/28 00:57:10;;;;;;;12.17;4.00;;;16.80;99.90;;;;;;4914153;29;20215;-82
2021/08/28 00:59:37;;;;;;;11.47;3.77;;;16.80;99.90;;;;;;4916166;29;20282;-83
2021/08/28 01:02:05;;;;;;;10.63;3.60;;;16.80;99.90;;;;;;4910493;29;20222;-83
2021/08/28 01:04:42;;;;;;;15.73;4.37;;;16.90;99.90;;;;;;4915431;29;20188;-82
2021/08/28 01:07:20;;;;;;;18.27;4.87;;;17.20;99.90;;;;;;4915610;29;20196;-82
2021/08/28 01:09:53;;;;;;;14.47;4.53;;;17.50;99.90;;;;;;4915633;29;20194;-82
2021/08/28 01:12:23;;;;;;;17.60;4.93;;;17.40;99.90;;;;;;4916694;29;20212;-83
2021/08/28 01:14:55;;;;;;;15.03;5.60;;;17.30;99.90;;;;;;4911211;29;20280;-82
2021/08/28 01:17:22;;;;;;;9.90;5.13;;;17.50;99.90;;;;;;4916949;29;20196;-83
2021/08/28 01:20:20;;;;;;;12.17;4.57;;;17.50;99.90;;;;;;4916455;29;20216;-83
2021/08/28 01:22:47;;;;;;;15.37;6.03;;;17.50;99.90;;;;;;4910689;29;20188;-83
2021/08/28 01:25:14;;;;;;;10.03;4.80;;;17.50;99.90;;;;;;4909459;29;20251;-83
2021/08/28 01:27:46;;;;;;;16.40;5.53;;;17.30;99.90;;;;;;4915235;29;20266;-83
2021/08/28 01:30:12;;;;;;;10.50;4.83;;;17.20;99.90;;;;;;4913826;29;20180;-83
2021/08/28 01:32:39;;;;;;;11.93;5.00;;;17.30;99.90;;;;;;4912220;29;20208;-82
2021/08/28 01:35:06;;;;;;;12.37;5.50;;;17.30;99.90;;;;;;4915582;29;20275;-82
2021/08/28 01:37:31;;;;;;;11.10;5.40;;;17.30;99.90;;;;;;4911754;29;20572;-81
2021/08/28 01:40:02;;;;;;;12.23;4.57;;;17.30;99.90;;;;;;4909052;29;20189;-82
2021/08/28 01:42:31;;;;;;;13.43;5.23;;;17.40;99.90;;;;;;4915611;29;20229;-82
2021/08/28 01:44:57;;;;;;;12.57;4.97;;;17.50;99.90;;;;;;4910135;29;20219;-82
2021/08/28 01:47:24;;;;;;;11.33;5.17;;;17.50;99.90;;;;;;4913334;29;20742;-82
2021/08/28 01:49:51;;;;;;;14.83;5.57;;;17.30;99.90;;;;;;4915334;29;20328;-83
2021/08/28 01:52:17;;;;;;;14.17;5.57;;;17.30;99.90;;;;;;4916005;29;20192;-83
2021/08/28 01:54:43;;;;;;;13.70;5.80;;;17.70;99.90;;;;;;4907510;29;20590;-83
2021/08/28 01:57:10;;;;;;;15.00;5.20;;;17.50;99.90;;;;;;4907647;29;20191;-82
2021/08/28 01:59:36;;;;;;;13.13;5.23;;;17.40;99.90;;;;;;4912159;29;20242;-82
2021/08/28 02:02:03;;;;;;;15.87;6.07;;;17.40;99.90;;;;;;4909441;29;20194;-83
2021/08/28 02:04:28;;;;;;;13.17;5.37;;;17.50;99.90;;;;;;4916304;29;20697;-82
2021/08/28 02:07:01;;;;;;;12.53;5.70;;;17.40;99.90;;;;;;4910993;29;20229;-82
2021/08/28 02:09:58;;;;;;;10.17;5.37;;;17.30;99.90;;;;;;4927495;29;20193;-82
2021/08/28 02:12:42;;;;;;;13.87;5.80;;;17.30;99.90;;;;;;4911862;29;20688;-82
2021/08/28 02:15:17;;;;;;;13.17;5.10;;;17.30;99.90;;;;;;4907732;29;20205;-83
2021/08/28 02:17:57;;;;;;;13.90;5.70;;;17.40;99.90;;;;;;4912441;29;20181;-82
2021/08/28 02:20:29;;;;;;;12.20;5.47;;;17.50;99.90;;;;;;4918714;29;20193;-83
2021/08/28 02:22:58;;;;;;;13.93;5.13;;;17.30;99.90;;;;;;4912368;29;20189;-83
2021/08/28 02:25:51;;;;;;;12.33;5.30;;;17.30;99.90;;;;;;4934685;29;20600;-83
2021/08/28 02:28:25;;;;;;;11.80;5.20;;;17.30;99.90;;;;;;4908044;29;20185;-83
2021/08/28 02:30:53;;;;;;;17.20;5.77;;;17.30;99.90;;;;;;4915169;29;20211;-83
2021/08/28 02:33:19;;;;;;;12.10;5.33;;;17.50;99.90;;;;;;4915800;29;20260;-82
2021/08/28 02:35:45;;;;;;;15.20;5.50;;;17.80;99.90;;;;;;4915181;29;20188;-83
2021/08/28 02:38:14;;;;;;;12.17;5.63;;;17.60;99.90;;;;;;4914912;29;20184;-82
2021/08/28 02:40:40;;;;;;;17.27;5.90;;;17.50;99.90;;;;;;4910783;29;20697;-82
2021/08/28 02:43:08;;;;;;;12.97;5.43;;;17.40;99.90;;;;;;4912003;29;20631;-82
2021/08/28 02:45:35;;;;;;;15.93;6.27;;;17.60;99.90;;;;;;4914838;29;20255;-82
2021/08/28 02:48:02;;;;;;;13.07;5.40;;;17.60;99.90;;;;;;4916152;29;20681;-81
2021/08/28 02:50:29;;;;;;;15.27;6.30;;;17.70;99.90;;;;;;4919175;29;20235;-81
2021/08/28 02:52:56;;;;;;;17.10;6.20;;;17.90;99.90;;;;;;4918467;29;20657;-82
2021/08/28 02:55:22;;;;;;;11.93;5.97;;;18.00;99.90;;;;;;4915480;29;20196;-82
2021/08/28 02:57:52;;;;;;;13.80;5.60;;;17.80;99.90;;;;;;4918203;29;20270;-82
2021/08/28 03:00:19;;;;;;;15.63;5.63;;;17.60;99.90;;;;;;4911856;29;20650;-82
2021/08/28 03:02:47;;;;;;;12.87;5.27;;;17.50;99.90;;;;;;4919587;29;20195;-82
2021/08/28 03:05:14;;;;;;;13.57;5.63;;;17.30;99.90;;;;;;4912559;29;20225;-83
2021/08/28 03:07:40;;;;;;;13.70;5.53;;;17.40;99.90;;;;;;4915349;29;20218;-83
2021/08/28 03:10:08;;;;;;;18.03;5.33;;;17.30;99.90;;;;;;4901120;29;20192;-83
2021/08/28 03:12:34;;;;;;;13.40;5.37;;;17.10;99.90;;;;;;4918638;29;20245;-82
2021/08/28 03:15:00;;;;;;;19.10;5.80;;;17.10;99.90;;;;;;4917462;29;20239;-83
2021/08/28 03:17:28;;;;;;;13.43;4.60;;;17.10;99.90;;;;;;4916752;29;20189;-83
2021/08/28 03:19:56;;;;;;;16.47;5.93;;;16.90;99.90;;;;;;4919251;29;20181;-83
2021/08/28 03:22:22;;;;;;;16.57;5.90;;;16.90;99.90;;;;;;4918037;29;20185;-83
2021/08/28 03:24:48;;;;;;;13.97;5.93;;;16.90;99.90;;;;;;4913961;29;20265;-83
2021/08/28 03:27:15;;;;;;;10.93;5.30;;;16.90;99.90;;;;;;4912927;29;20189;-83
2021/08/28 03:29:43;;;;;;;15.27;6.27;;;16.90;99.90;;;;;;4912410;29;20189;-82
2021/08/28 03:32:09;;;;;;;10.97;5.40;;;16.80;99.90;;;;;;4908694;29;20185;-82
2021/08/28 03:34:36;;;;;;;14.77;6.30;;;16.60;99.90;;;;;;4918571;29;20244;-83
2021/08/28 03:37:02;;;;;;;14.47;5.87;;;16.50;99.90;;;;;;4915673;29;20184;-82
2021/08/28 03:39:29;;;;;;;17.60;6.03;;;16.60;99.90;;;;;;4911957;29;20192;-82
2021/08/28 03:41:55;;;;;;;15.70;5.70;;;16.60;99.90;;;;;;4914608;29;20280;-82
2021/08/28 03:44:21;;;;;;;12.27;5.47;;;16.50;99.90;;;;;;4926294;29;20722;-82
2021/08/28 03:46:48;;;;;;;11.20;5.30;;;16.40;99.90;;;;;;4916447;29;20228;-83
2021/08/28 03:49:15;;;;;;;14.80;6.90;;;16.40;99.90;;;;;;4905657;29;20188;-83
2021/08/28 03:51:41;;;;;;;15.10;7.17;;;16.40;99.90;;;;;;4912701;29;20193;-82
2021/08/28 03:54:07;;;;;;;22.80;8.10;;;16.60;99.90;;;;;;4913891;29;20180;-83
2021/08/28 03:56:32;;;;;;;16.17;7.17;;;16.70;99.90;;;;;;4904798;29;20194;-83
2021/08/28 03:58:58;;;;;;;16.70;7.47;;;16.80;99.90;;;;;;4908601;29;20677;-83
2021/08/28 04:01:24;;;;;;;20.43;8.13;;;17.00;99.90;;;;;;4915008;29;20267;-83
2021/08/28 04:03:49;;;;;;;23.33;9.10;;;16.80;99.90;;;;;;4916946;29;20189;-82
2021/08/28 04:06:15;;;;;;;20.23;8.60;;;16.80;99.90;;;;;;4912485;29;20222;-82
2021/08/28 04:08:41;;;;;;;23.97;8.80;;;16.90;99.90;;;;;;4908457;29;20188;-82
2021/08/28 04:11:06;;;;;;;22.13;9.47;;;16.80;99.90;;;;;;4913868;29;20189;-82
2021/08/28 04:13:32;;;;;;;17.20;9.03;;;16.90;99.90;;;;;;4912058;29;20564;-82
2021/08/28 04:15:58;;;;;;;22.80;9.73;;;16.90;99.90;;;;;;4908115;29;20198;-83
2021/08/28 04:18:23;;;;;;;25.23;10.50;;;16.80;99.90;;;;;;4908216;29;20268;-82
2021/08/28 04:20:49;;;;;;;19.47;9.23;;;16.80;99.90;;;;;;4912654;29;20196;-82
2021/08/28 04:23:14;;;;;;;23.03;10.27;;;16.80;99.90;;;;;;4916863;29;20193;-82
2021/08/28 04:25:40;;;;;;;21.13;9.93;;;16.80;99.90;;;;;;4917097;29;20222;-82
2021/08/28 04:28:06;;;;;;;27.33;9.93;;;16.80;99.90;;;;;;4921704;29;20188;-82
2021/08/28 04:30:32;;;;;;;26.37;10.90;;;16.70;99.90;;;;;;4914179;29;20644;-82
2021/08/28 04:32:59;;;;;;;20.87;10.97;;;16.70;99.90;;;;;;4910025;29;20193;-82
2021/08/28 04:35:24;;;;;;;22.17;10.33;;;16.70;99.90;;;;;;4931679;29;20187;-82
2021/08/28 04:37:51;;;;;;;20.83;10.97;;;16.70;99.90;;;;;;4907339;29;20188;-82
2021/08/28 04:40:16;;;;;;;24.37;10.67;;;16.70;99.90;;;;;;4910097;29;20671;-82
2021/08/28 04:42:43;;;;;;;23.73;10.97;;;16.90;99.90;;;;;;4913188;29;20193;-82
2021/08/28 04:45:09;;;;;;;24.03;10.77;;;16.80;99.90;;;;;;4916021;29;20245;-83
2021/08/28 04:47:34;;;;;;;23.67;10.93;;;16.90;99.90;;;;;;4910591;29;20194;-83
2021/08/28 04:50:00;;;;;;;17.23;9.83;;;17.00;99.90;;;;;;4907079;29;20184;-82
2021/08/28 04:52:25;;;;;;;22.07;10.27;;;17.00;99.90;;;;;;4911095;29;20177;-83
2021/08/28 04:54:51;;;;;;;24.10;10.60;;;17.10;99.90;;;;;;4910651;29;20246;-82
2021/08/28 04:57:16;;;;;;;26.33;11.93;;;17.10;99.90;;;;;;4916259;29;20199;-82
2021/08/28 04:59:42;;;;;;;20.53;9.97;;;17.10;99.90;;;;;;4915984;29;20198;-83
2021/08/28 05:02:08;;;;;;;21.73;10.70;;;17.00;99.90;;;;;;4914407;29;20244;-80
2021/08/28 05:04:33;;;;;;;22.53;10.97;;;17.00;99.90;;;;;;4916875;29;20276;-81
2021/08/28 05:06:59;;;;;;;20.33;10.70;;;17.00;99.90;;;;;;4912862;29;20704;-83
2021/08/28 05:09:25;;;;;;;21.83;9.83;;;16.90;99.90;;;;;;4910890;29;20191;-82
2021/08/28 05:11:50;;;;;;;20.97;10.03;;;16.90;99.90;;;;;;4910595;29;20752;-82
2021/08/28 05:14:16;;;;;;;17.17;9.87;;;16.80;99.90;;;;;;4916293;29;20214;-82
2021/08/28 05:16:42;;;;;;;24.60;9.43;;;17.00;99.90;;;;;;4912771;29;20566;-82
2021/08/28 05:19:07;;;;;;;21.60;9.70;;;17.10;99.90;;;;;;4913469;29;20543;-83
2021/08/28 05:21:33;;;;;;;19.70;9.13;;;17.10;99.90;;;;;;4915904;29;20195;-83
2021/08/28 05:23:59;;;;;;;19.63;10.73;;;17.20;99.90;;;;;;4911686;29;20188;-80
2021/08/28 05:26:25;;;;;;;23.93;9.43;;;17.20;99.90;;;;;;4914313;29;20228;-83
2021/08/28 05:28:51;;;;;;;14.63;8.90;;;17.20;99.90;;;;;;4928120;29;20184;-83
2021/08/28 05:31:16;;;;;;;24.37;10.00;;;17.00;99.90;;;;;;4908456;29;20193;-84
2021/08/28 05:33:42;;;;;;;18.77;8.37;;;16.90;99.90;;;;;;4908543;29;20267;-83
2021/08/28 05:36:07;;;;;;;20.33;8.93;;;16.80;99.90;;;;;;4904775;29;20201;-82
2021/08/28 05:38:33;;;;;;;17.60;7.50;;;16.80;99.90;;;;;;4903716;29;20193;-81
2021/08/28 05:40:59;;;;;;;18.77;7.80;;;16.80;99.90;;;;;;4904828;29;20189;-83
2021/08/28 05:43:25;;;;;;;18.47;7.67;;;16.90;99.90;;;;;;4911946;29;20271;-83
2021/08/28 05:45:50;;;;;;;21.70;8.30;;;17.10;99.90;;;;;;4913000;29;20208;-81
2021/08/28 05:48:16;;;;;;;18.50;8.33;;;17.00;99.90;;;;;;4915371;29;20261;-82
2021/08/28 05:50:41;;;;;;;18.40;8.40;;;17.30;99.90;;;;;;4910749;29;20181;-80
2021/08/28 05:53:07;;;;;;;17.63;8.30;;;17.60;99.90;;;;;;4903647;29;20182;-79
2021/08/28 05:55:33;;;;;;;17.20;8.23;;;17.60;99.90;;;;;;4913760;29;20187;-82
2021/08/28 05:57:58;;;;;;;17.93;8.73;;;17.60;99.90;;;;;;4908757;29;20192;-79
2021/08/28 06:00:24;;;;;;;15.87;7.83;;;17.70;99.90;;;;;;4918197;29;20179;-82
2021/08/28 06:02:50;;;;;;;19.73;7.67;;;17.60;99.90;;;;;;4913419;29;20184;-82
2021/08/28 06:05:15;;;;;;;15.20;7.67;;;17.50;99.90;;;;;;4914940;29;20207;-83
2021/08/28 06:07:41;;;;;;;17.80;7.97;;;17.40;99.90;;;;;;4911275;29;20185;-82
2021/08/28 06:10:07;;;;;;;18.73;7.80;;;17.50;99.90;;;;;;4908472;29;20658;-82
2021/08/28 06:12:34;;;;;;;18.23;8.23;;;17.60;99.90;;;;;;4914448;29;20677;-80
2021/08/28 06:15:00;;;;;;;15.60;8.30;;;17.80;99.90;;;;;;4914417;29;20190;-83
2021/08/28 06:17:26;;;;;;;16.13;7.53;;;17.90;99.90;;;;;;4918338;29;20180;-83
2021/08/28 06:19:51;;;;;;;12.93;6.83;;;17.90;99.90;;;;;;4913977;29;20549;-83
2021/08/28 06:22:17;;;;;;;16.80;7.53;;;17.90;99.90;;;;;;4917657;29;20186;-82
2021/08/28 06:24:43;;;;;;;24.33;7.53;;;18.00;99.90;;;;;;4916181;29;20209;-82
2021/08/28 06:27:09;;;;;;;12.47;6.43;;;17.90;99.90;;;;;;4914801;29;20260;-81
2021/08/28 06:29:35;;;;;;;13.73;6.80;;;18.00;99.90;;;;;;4920418;29;20652;-84
2021/08/28 06:32:01;;;;;;;13.97;6.53;;;18.00;99.90;;;;;;4919784;29;20187;-82
2021/08/28 06:34:27;;;;;;;19.33;7.00;;;17.90;99.90;;;;;;4911587;29;20657;-83
2021/08/28 06:36:52;;;;;;;19.90;6.57;;;18.00;99.90;;;;;;4909789;29;20184;-82
2021/08/28 06:39:18;;;;;;;18.87;6.67;;;17.90;99.90;;;;;;4918992;29;20196;-82
2021/08/28 06:41:44;;;;;;;12.70;6.17;;;18.00;99.90;;;;;;4918326;29;20212;-82
2021/08/28 06:44:09;;;;;;;19.47;6.63;;;18.00;99.90;;;;;;4915268;29;20634;-79
2021/08/28 06:46:35;;;;;;;12.33;5.97;;;18.10;99.90;;;;;;4914597;29;20685;-82
2021/08/28 06:49:01;;;;;;;13.40;5.67;;;18.20;99.90;;;;;;4915642;29;20185;-82
2021/08/28 06:51:26;;;;;;;13.10;5.87;;;18.30;99.90;;;;;;4915644;29;20256;-83
2021/08/28 06:53:52;;;;;;;14.43;5.50;;;18.30;99.90;;;;;;4919606;29;20218;-82
2021/08/28 06:56:18;;;;;;;15.10;5.87;;;18.30;99.90;;;;;;4917753;29;20666;-82
2021/08/28 06:58:44;;;;;;;12.30;5.50;;;18.40;99.90;;;;;;4918614;29;20654;-83
2021/08/28 07:01:10;;;;;;;13.40;5.80;;;18.40;99.90;;;;;;4917671;29;20182;-83
2021/08/28 07:03:35;;;;;;;15.20;6.10;;;18.40;99.90;;;;;;4915253;29;20191;-81
2021/08/28 07:06:02;;;;;;;11.47;6.00;;;18.50;99.90;;;;;;4918422;29;20300;-82
2021/08/28 07:08:28;;;;;;;16.97;5.47;;;18.50;99.90;;;;;;4918816;29;20241;-84
2021/08/28 07:10:53;;;;;;;16.37;6.17;;;18.50;99.90;;;;;;4917888;29;20193;-83
2021/08/28 07:13:19;;;;;;;14.00;6.13;;;18.40;99.90;;;;;;4917865;29;20239;-83
2021/08/28 07:15:45;;;;;;;17.97;6.00;;;18.60;99.90;;;;;;4910027;29;20192;-83
2021/08/28 07:18:11;;;;;;;11.63;5.37;;;18.60;99.90;;;;;;4923263;29;20605;-83
2021/08/28 07:20:38;;;;;;;18.47;5.20;;;18.70;99.90;;;;;;4917669;29;20188;-83
2021/08/28 07:23:05;;;;;;;14.70;5.30;;;18.60;99.90;;;;;;4919317;29;20228;-82
2021/08/28 07:25:37;;;;;;;14.53;5.13;;;18.70;99.90;;;;;;4920169;29;20244;-83
2021/08/28 07:28:04;;;;;;;12.70;5.53;;;18.80;99.90;;;;;;4909314;29;20169;-82
2021/08/28 07:30:29;;;;;;;15.93;4.90;;;18.90;99.90;;;;;;4903089;29;20192;-82
2021/08/28 07:32:56;;;;;;;10.13;5.00;;;19.00;99.90;;;;;;4916529;29;20190;-83
2021/08/28 07:35:21;;;;;;;10.50;5.10;;;19.10;99.90;;;;;;4917524;29;20213;-83
2021/08/28 07:37:47;;;;;;;17.90;5.37;;;19.20;99.90;;;;;;4914850;29;20177;-83
2021/08/28 07:40:13;;;;;;;10.40;4.50;;;19.30;99.90;;;;;;4911552;29;20199;-83
2021/08/28 07:42:38;;;;;;;14.27;4.90;;;19.40;99.90;;;;;;4918656;29;20202;-83
2021/08/28 07:45:04;;;;;;;8.70;4.50;;;19.40;99.90;;;;;;4925394;29;20299;-84
2021/08/28 07:47:30;;;;;;;9.10;4.60;;;19.70;99.90;;;;;;4920219;29;20193;-84
2021/08/28 07:49:55;;;;;;;11.60;4.27;;;19.80;99.90;;;;;;4918592;29;20190;-83
2021/08/28 07:52:21;;;;;;;10.37;4.77;;;20.00;99.90;;;;;;4916413;29;20235;-83
2021/08/28 07:54:47;;;;;;;9.07;4.90;;;20.00;99.90;;;;;;4918394;29;20674;-83
2021/08/28 07:57:12;;;;;;;9.80;4.17;;;20.10;99.90;;;;;;4918262;29;20235;-82
2021/08/28 07:59:38;;;;;;;11.43;4.50;;;20.10;99.90;;;;;;4915834;29;20191;-82
2021/08/28 08:02:04;;;;;;;11.27;4.20;;;20.20;99.90;;;;;;4916670;29;20810;-83
2021/08/28 08:04:29;;;;;;;11.33;3.70;;;20.20;99.90;;;;;;4916092;29;20199;-82
2021/08/28 08:06:55;;;;;;;10.33;3.93;;;20.30;99.90;;;;;;4915366;29;20255;-83
2021/08/28 08:09:20;;;;;;;12.30;4.20;;;20.30;99.90;;;;;;4921032;29;20261;-83
2021/08/28 08:11:46;;;;;;;8.90;3.17;;;20.30;99.90;;;;;;4916151;29;20198;-82
2021/08/28 08:14:12;;;;;;;8.97;2.93;;;20.20;99.90;;;;;;4914935;29;20196;-82
2021/08/28 08:16:38;;;;;;;7.40;3.50;;;20.20;99.90;;;;;;4917146;29;20179;-83
2021/08/28 08:19:04;;;;;;;7.47;3.30;;;20.40;99.90;;;;;;4917070;29;20192;-84
2021/08/28 08:21:30;;;;;;;6.00;3.10;;;20.40;99.90;;;;;;4918029;29;20181;-81
2021/08/28 08:23:55;;;;;;;6.37;3.27;;;20.40;99.90;;;;;;4916866;29;20592;-83
2021/08/28 08:26:21;;;;;;;10.13;3.43;;;20.70;99.90;;;;;;4928567;29;20243;-83
2021/08/28 08:28:47;;;;;;;7.50;2.60;;;20.90;99.90;;;;;;4913760;29;20203;-81
2021/08/28 08:31:12;;;;;;;5.57;2.67;;;20.90;99.90;;;;;;4907143;29;20274;-82
2021/08/28 08:33:38;;;;;;;10.37;3.23;;;21.00;99.90;;;;;;4931770;29;20653;-83
2021/08/28 08:36:04;;;;;;;7.87;2.90;;;21.00;99.90;;;;;;4916335;29;20202;-82
2021/08/28 08:38:30;;;;;;;5.00;2.50;;;21.00;99.90;;;;;;4914260;29;20727;-82
2021/08/28 08:40:57;;;;;;;9.50;3.20;;;21.10;99.90;;;;;;4916189;29;20286;-83
2021/08/28 08:43:23;;;;;;;8.00;3.00;;;21.10;99.90;;;;;;4913741;29;20204;-83
2021/08/28 08:45:49;;;;;;;7.27;3.17;;;21.00;99.90;;;;;;4925623;29;20248;-83
2021/08/28 08:48:17;;;;;;;8.27;2.93;;;21.00;99.90;;;;;;4917731;29;20616;-82
2021/08/28 08:50:44;;;;;;;5.50;2.33;;;21.00;99.90;;;;;;4916536;29;20553;-84
2021/08/28 08:53:11;;;;;;;7.07;3.40;;;20.90;99.90;;;;;;4913813;29;20716;-82
2021/08/28 08:55:37;;;;;;;4.70;2.60;;;20.90;99.90;;;;;;4924987;29;20188;-82
2021/08/28 08:58:02;;;;;;;4.70;2.27;;;21.10;99.90;;;;;;4915992;29;20270;-83
2021/08/28 09:00:28;;;;;;;8.60;2.70;;;21.20;99.90;;;;;;4919972;29;20640;-83
2021/08/28 09:02:55;;;;;;;6.73;2.97;;;21.30;99.90;;;;;;4915710;29;20192;-81
2021/08/28 09:05:20;;;;;;;9.47;2.63;;;21.40;99.90;;;;;;4930646;29;20576;-83
2021/08/28 09:07:46;;;;;;;6.40;2.37;;;21.30;99.90;;;;;;4917008;29;20192;-82
2021/08/28 09:10:14;;;;;;;9.30;2.60;;;21.20;99.90;;;;;;4915706;29;20184;-84
2021/08/28 09:12:41;;;;;;;9.67;2.80;;;21.00;99.90;;;;;;4910237;29;20236;-84
2021/08/28 09:15:12;;;;;;;6.03;2.80;;;20.90;99.90;;;;;;4911693;29;20226;-84
2021/08/28 09:17:39;;;;;;;7.33;3.00;;;20.80;99.90;;;;;;4931150;29;20190;-84
2021/08/28 09:20:18;;;;;;;7.07;2.90;;;20.80;99.90;;;;;;4921843;29;20186;-84
2021/08/28 09:22:44;;;;;;;5.80;2.70;;;20.80;99.90;;;;;;4929412;29;20198;-84
2021/08/28 09:25:10;;;;;;;7.10;2.73;;;20.90;99.90;;;;;;4916414;29;20216;-84
2021/08/28 09:27:43;;;;;;;5.20;3.07;;;21.00;99.90;;;;;;4915778;29;20203;-84
2021/08/28 09:30:23;;;;;;;6.57;2.93;;;21.00;99.90;;;;;;4916002;29;20191;-83
2021/08/28 09:32:56;;;;;;;5.73;3.17;;;21.00;99.90;;;;;;4917088;29;20196;-83
2021/08/28 09:35:26;;;;;;;7.07;2.90;;;21.00;99.90;;;;;;4915314;29;20195;-83
2021/08/28 09:38:00;;;;;;;6.03;2.40;;;21.10;99.90;;;;;;4916939;29;20720;-82
2021/08/28 09:40:28;;;;;;;7.90;2.73;;;21.20;99.90;;;;;;4915509;29;20223;-84
2021/08/28 09:43:00;;;;;;;5.23;2.87;;;21.50;99.90;;;;;;4915240;29;20220;-84
2021/08/28 09:45:27;;;;;;;6.20;2.90;;;21.70;99.90;;;;;;4915586;29;20607;-84
2021/08/28 09:47:53;;;;;;;4.50;2.33;;;21.90;99.90;;;;;;4915623;29;20243;-84
2021/08/28 09:50:36;;;;;;;8.27;2.53;;;22.00;99.90;;;;;;4915141;29;20196;-83
2021/08/28 09:53:10;;;;;;;7.87;2.20;;;22.10;99.90;;;;;;4921013;29;20211;-83
2021/08/28 09:55:38;;;;;;;9.33;2.67;;;22.30;99.90;;;;;;4921631;29;20192;-85
2021/08/28 09:58:05;;;;;;;5.00;2.47;;;22.50;99.90;;;;;;4935146;29;20176;-82
2021/08/28 10:00:40;;;;;;;8.30;2.17;;;22.50;99.90;;;;;;4920206;29;20284;-82
2021/08/28 10:03:06;;;;;;;4.33;2.47;;;22.70;99.90;;;;;;4924041;29;20180;-83
2021/08/28 10:05:34;;;;;;;6.33;2.37;;;22.80;99.90;;;;;;4918317;29;20561;-83
2021/08/28 10:08:02;;;;;;;4.73;2.30;;;22.90;99.90;;;;;;4922330;29;20185;-78
2021/08/28 10:10:30;;;;;;;5.37;2.73;;;23.20;99.90;;;;;;4921538;29;20239;-79
2021/08/28 10:12:57;;;;;;;5.33;2.37;;;23.30;99.90;;;;;;4921276;29;20665;-79
2021/08/28 10:15:24;;;;;;;4.07;2.47;;;23.40;99.70;;;;;;4921871;29;20184;-79
2021/08/28 10:17:50;;;;;;;4.23;2.30;;;23.50;99.90;;;;;;4922359;29;20188;-79
2021/08/28 10:20:18;;;;;;;5.53;2.60;;;23.50;99.90;;;;;;4920959;29;20271;-83
2021/08/28 10:22:44;;;;;;;5.97;2.17;;;23.40;99.90;;;;;;4921027;29;20180;-80
2021/08/28 10:25:12;;;;;;;4.90;2.60;;;23.20;99.90;;;;;;4920469;29;20223;-83
2021/08/28 10:27:40;;;;;;;6.93;2.70;;;22.90;99.90;;;;;;4917735;29;20220;-82
2021/08/28 10:30:08;;;;;;;7.73;2.80;;;22.70;99.90;;;;;;4918842;29;20667;-83
2021/08/28 10:32:35;;;;;;;6.77;2.87;;;22.50;99.90;;;;;;4920822;29;20185;-83
2021/08/28 10:35:01;;;;;;;7.00;2.60;;;22.40;99.90;;;;;;4927017;29;20236;-82
2021/08/28 10:37:27;;;;;;;4.87;2.60;;;22.40;99.90;;;;;;4907347;29;20208;-79
2021/08/28 10:39:53;;;;;;;3.37;2.20;;;22.50;99.90;;;;;;4920705;29;20223;-82
2021/08/28 10:42:21;;;;;;;5.10;2.53;;;22.70;99.90;;;;;;4913845;29;20207;-83
2021/08/28 10:44:52;;;;;;;8.07;2.40;;;22.90;99.90;;;;;;4922811;29;20219;-82
2021/08/28 10:47:23;;;;;;;5.87;2.63;;;23.20;99.90;;;;;;4924309;29;20756;-84
2021/08/28 10:49:50;;;;;;;6.70;2.63;;;23.50;99.90;;;;;;4921651;29;20188;-83
2021/08/28 10:52:24;;;;;;;5.33;2.40;;;23.90;99.90;;;;;;4922470;29;20188;-84
2021/08/28 10:54:54;;;;;;;5.97;2.57;;;24.40;99.90;;;;;;4922551;29;20651;-84
2021/08/28 10:57:28;;;;;;;3.90;2.33;;;24.70;99.60;;;;;;4922307;29;20224;-83
2021/08/28 11:00:14;;;;;;;4.97;2.20;;;24.90;99.30;;;;;;4921465;29;20211;-84
2021/08/28 11:02:46;;;;;;;6.87;2.40;;;24.90;98.70;;;;;;4919731;29;20200;-84
2021/08/28 11:05:25;;;;;;;4.70;2.40;;;24.70;98.10;;;;;;4917252;29;20653;-84
2021/08/28 11:07:51;;;;;;;7.80;2.70;;;24.40;98.90;;;;;;4909027;29;20236;-83
2021/08/28 11:10:25;;;;;;;5.10;2.40;;;24.20;99.00;;;;;;4912349;29;20173;-83
2021/08/28 11:13:04;;;;;;;6.63;2.50;;;24.80;98.90;;;;;;4930158;29;20204;-84
2021/08/28 11:15:33;;;;;;;5.53;2.33;;;25.80;97.90;;;;;;4918286;29;20583;-84
2021/08/28 11:18:01;;;;;;;4.53;2.13;;;27.30;96.70;;;;;;4917584;29;20285;-83
2021/08/28 11:20:28;;;;;;;5.33;2.00;;;27.90;94.80;;;;;;4917827;29;20596;-83
2021/08/28 11:22:55;;;;;;;5.37;2.50;;;28.40;93.80;;;;;;4925869;29;20245;-83
2021/08/28 11:25:29;;;;;;;3.17;2.07;;;29.30;92.60;;;;;;4919435;29;20300;-85
2021/08/28 11:27:56;;;;;;;5.90;2.43;;;30.10;91.60;;;;;;4918506;29;20192;-84
2021/08/28 11:30:46;;;;;;;5.10;2.23;;;30.50;90.30;;;;;;4919099;29;20188;-84
2021/08/28 11:33:26;;;;;;;5.07;2.80;;;29.90;90.10;;;;;;4917228;29;20188;-85
2021/08/28 11:36:04;;;;;;;6.53;2.57;;;29.50;90.20;;;;;;4915726;29;20215;-83
2021/08/28 11:38:39;;;;;;;5.33;2.60;;;29.10;90.80;;;;;;4912039;29;20260;-83
2021/08/28 11:41:11;;;;;;;5.00;2.60;;;28.60;91.00;;;;;;4931324;29;20226;-83
2021/08/28 11:43:41;;;;;;;4.10;2.13;;;28.10;91.30;;;;;;4921132;29;20207;-88
2021/08/28 11:46:16;;;;;;;4.57;2.77;;;27.50;92.30;;;;;;4916881;29;20224;-83
2021/08/28 11:48:44;;;;;;;7.33;2.70;;;27.10;92.70;;;;;;4917289;29;20183;-84
2021/08/28 11:51:16;;;;;;;4.20;2.43;;;26.80;92.60;;;;;;4919162;29;20193;-85
2021/08/28 11:53:49;;;;;;;5.50;2.43;;;26.40;92.80;;;;;;4919004;29;20191;-84
2021/08/28 11:56:21;;;;;;;5.17;2.40;;;26.00;93.00;;;;;;4920253;29;20187;-84
2021/08/28 11:58:47;;;;;;;7.53;2.50;;;25.40;94.10;;;;;;4920060;29;20254;-81
2021/08/28 12:01:43;;;;;;;5.57;2.70;;;25.20;95.10;;;;;;4920190;29;20187;-80
2021/08/28 12:04:13;;;;;;;6.47;2.60;;;25.50;95.00;;;;;;4921055;29;20214;-84
2021/08/28 12:06:41;;;;;;;5.93;2.53;;;26.50;94.40;;;;;;4922312;29;20228;-85
2021/08/28 12:09:11;;;;;;;6.23;2.60;;;26.90;94.20;;;;;;4938023;29;20214;-82
2021/08/28 12:11:43;;;;;;;7.50;2.90;;;27.20;93.70;;;;;;4924194;29;20197;-81
2021/08/28 12:14:10;;;;;;;4.53;2.90;;;27.10;93.20;;;;;;4916253;29;20185;-83
2021/08/28 12:16:37;;;;;;;3.90;2.67;;;27.80;93.10;;;;;;4916456;29;20633;-82
2021/08/28 12:19:18;;;;;;;6.67;3.00;;;29.00;92.20;;;;;;4917079;29;20212;-85
2021/08/28 12:21:46;;;;;;;5.80;3.00;;;30.40;90.30;;;;;;4917163;29;20641;-79
2021/08/28 12:24:26;;;;;;;4.83;2.63;;;30.20;90.30;;;;;;4913747;29;20261;-84
2021/08/28 12:26:53;;;;;;;4.03;2.70;;;29.60;90.50;;;;;;4917125;29;20290;-79
2021/08/28 12:29:33;;;;;;;7.77;2.83;;;28.90;90.20;;;;;;4917068;29;20191;-83
2021/08/28 12:31:59;;;;;;;6.53;2.87;;;28.20;90.80;;;;;;4913800;29;20683;-80
2021/08/28 12:34:30;;;;;;;4.50;2.70;;;27.40;92.00;;;;;;4908114;29;20200;-83
2021/08/28 12:36:59;;;;;;;7.07;3.73;;;26.70;92.90;;;;;;4924275;29;20655;-82
2021/08/28 12:39:25;;;;;;;5.27;3.20;;;26.30;94.10;;;;;;4910310;29;20248;-84
2021/08/28 12:41:51;;;;;;;6.23;3.07;;;27.30;93.30;;;;;;4905049;29;20188;-83
2021/08/28 12:44:18;;;;;;;6.60;3.00;;;28.00;92.00;;;;;;4903295;29;20265;-84